createdAt,value
2022-12-07T00:01:10.454Z,6.37
2022-12-07T00:03:39.669Z,5.57
2022-12-07T00:06:08.865Z,5.83
2022-12-07T00:08:37.225Z,6.93
2022-12-07T00:11:05.576Z,6.53
2022-12-07T00:13:35.529Z,6.30
2022-12-07T00:16:04.374Z,6.20
2022-12-07T00:18:32.396Z,6.10
2022-12-07T00:21:04.267Z,5.37
2022-12-07T00:23:32.288Z,4.93
2022-12-07T00:26:06.201Z,5.67
2022-12-07T00:28:35.912Z,5.73
2022-12-07T00:31:06.095Z,5.50
2022-12-07T00:33:34.197Z,5.40
2022-12-07T00:36:02.986Z,5.77
2022-12-07T00:38:32.029Z,5.50
2022-12-07T00:41:00.800Z,6.23
2022-12-07T00:43:29.371Z,5.50
2022-12-07T00:45:58.978Z,7.53
2022-12-07T00:48:27.199Z,6.10
2022-12-07T00:50:55.152Z,5.77
2022-12-07T00:53:23.101Z,5.77
2022-12-07T00:55:51.336Z,6.10
2022-12-07T00:58:19.217Z,4.70
2022-12-07T01:00:47.195Z,5.00
2022-12-07T01:03:17.667Z,5.20
2022-12-07T01:05:52.034Z,5.17
2022-12-07T01:08:19.996Z,4.97
2022-12-07T01:10:48.511Z,5.97
2022-12-07T01:13:16.985Z,6.07
2022-12-07T01:15:45.777Z,5.43
2022-12-07T01:18:13.738Z,5.87
2022-12-07T01:20:43.163Z,6.13
2022-12-07T01:23:11.067Z,5.53
2022-12-07T01:25:38.972Z,5.87
2022-12-07T01:28:07.054Z,5.60
2022-12-07T01:30:35.009Z,6.10
2022-12-07T01:33:02.949Z,5.33
2022-12-07T01:35:30.838Z,5.30
2022-12-07T01:38:00.103Z,5.03
2022-12-07T01:40:28.017Z,5.30
2022-12-07T01:42:55.928Z,6.07
2022-12-07T01:45:39.861Z,5.07
2022-12-07T01:48:08.634Z,5.37
2022-12-07T01:50:37.470Z,4.17
2022-12-07T01:53:09.078Z,4.60
2022-12-07T01:55:39.849Z,4.47
2022-12-07T01:58:07.864Z,4.93
2022-12-07T02:00:35.756Z,4.60
2022-12-07T02:03:07.087Z,3.70
2022-12-07T02:05:36.127Z,3.93
2022-12-07T02:08:06.438Z,3.93
2022-12-07T02:10:34.776Z,3.57
2022-12-07T02:13:06.548Z,3.60
2022-12-07T02:15:43.410Z,3.60
2022-12-07T02:18:17.140Z,4.00
2022-12-07T02:20:51.637Z,2.87
2022-12-07T02:23:57.529Z,3.37
2022-12-07T02:26:54.057Z,3.33
2022-12-07T02:29:26.241Z,3.13
2022-12-07T02:31:59.118Z,3.10
2022-12-07T02:34:35.105Z,3.20
2022-12-07T02:37:05.973Z,2.90
2022-12-07T02:39:36.565Z,2.80
2022-12-07T02:42:11.646Z,2.60
2022-12-07T02:44:41.385Z,2.53
2022-12-07T02:47:12.604Z,2.50
2022-12-07T02:49:41.153Z,2.40
2022-12-07T02:52:09.041Z,2.57
2022-12-07T02:54:37.179Z,2.50
2022-12-07T02:57:14.374Z,1.83
2022-12-07T02:59:51.104Z,2.70
2022-12-07T03:02:24.591Z,2.10
2022-12-07T03:04:57.712Z,2.00
2022-12-07T03:07:33.201Z,2.20
2022-12-07T03:10:05.343Z,1.70
2022-12-07T03:12:38.480Z,2.00
2022-12-07T03:15:10.485Z,1.60
2022-12-07T03:17:42.218Z,1.50
2022-12-07T03:20:13.103Z,1.67
2022-12-07T03:22:42.489Z,1.40
2022-12-07T03:25:12.981Z,1.50
2022-12-07T03:27:44.926Z,1.47
2022-12-07T03:30:18.879Z,1.40
2022-12-07T03:32:48.936Z,1.43
2022-12-07T03:35:19.862Z,1.37
2022-12-07T03:37:50.649Z,1.60
2022-12-07T03:40:22.764Z,1.33
2022-12-07T03:42:51.039Z,1.30
2022-12-07T03:45:22.913Z,1.20
2022-12-07T03:47:55.696Z,1.17
2022-12-07T03:50:28.209Z,1.27
2022-12-07T03:52:59.151Z,1.23
2022-12-07T03:55:29.485Z,1.40
2022-12-07T03:58:00.280Z,1.33
2022-12-07T04:00:29.652Z,1.20
2022-12-07T04:02:57.920Z,1.40
2022-12-07T04:05:26.155Z,1.33
2022-12-07T04:07:54.183Z,1.10
2022-12-07T04:10:22.370Z,1.10
2022-12-07T04:12:50.285Z,1.20
2022-12-07T04:15:18.285Z,1.63
2022-12-07T04:17:47.576Z,1.13
2022-12-07T04:20:15.598Z,1.10
2022-12-07T04:22:43.469Z,1.30
2022-12-07T04:25:11.610Z,1.17
2022-12-07T04:27:39.536Z,0.90
2022-12-07T04:30:08.770Z,1.40
2022-12-07T04:32:36.680Z,1.13
2022-12-07T04:35:06.880Z,1.60
2022-12-07T04:37:34.891Z,1.20
2022-12-07T04:40:03.017Z,1.50
2022-12-07T04:42:31.224Z,1.30
2022-12-07T04:44:59.178Z,1.50
2022-12-07T04:47:27.060Z,1.03
2022-12-07T04:49:55.018Z,1.00
2022-12-07T04:52:24.337Z,1.50
2022-12-07T04:54:52.218Z,1.07
2022-12-07T04:57:20.129Z,0.90
2022-12-07T04:59:48.021Z,1.00
2022-12-07T05:02:16.013Z,1.10
2022-12-07T05:04:43.917Z,1.30
2022-12-07T05:07:11.812Z,1.20
2022-12-07T05:09:41.088Z,1.07
2022-12-07T05:12:09.014Z,1.20
2022-12-07T05:14:36.940Z,1.17
2022-12-07T05:17:05.187Z,1.23
2022-12-07T05:19:33.107Z,1.03
2022-12-07T05:22:01.066Z,1.20
2022-12-07T05:24:29.375Z,1.00
2022-12-07T05:26:58.629Z,0.73
2022-12-07T05:29:26.545Z,0.80
2022-12-07T05:31:54.767Z,1.00
2022-12-07T05:34:23.008Z,1.00
2022-12-07T05:36:51.451Z,0.97
2022-12-07T05:39:19.356Z,0.90
2022-12-07T05:42:04.479Z,1.00
2022-12-07T05:44:33.729Z,1.20
2022-12-07T05:47:01.614Z,0.90
2022-12-07T05:49:29.522Z,1.43
2022-12-07T05:51:57.423Z,1.00
2022-12-07T05:54:25.663Z,1.10
2022-12-07T05:56:53.584Z,0.90
2022-12-07T05:59:28.104Z,0.97
2022-12-07T06:01:59.323Z,0.97
2022-12-07T06:04:28.412Z,1.00
2022-12-07T06:06:56.322Z,2.50
2022-12-07T06:09:25.964Z,1.40
2022-12-07T06:12:11.465Z,1.00
2022-12-07T06:14:39.533Z,1.00
2022-12-07T06:17:08.897Z,1.07
2022-12-07T06:19:36.909Z,0.80
2022-12-07T06:22:05.643Z,1.13
2022-12-07T06:24:34.118Z,1.20
2022-12-07T06:27:02.097Z,1.20
2022-12-07T06:29:29.995Z,0.70
2022-12-07T06:31:57.937Z,0.97
2022-12-07T06:34:27.947Z,0.90
2022-12-07T06:36:56.763Z,1.10
2022-12-07T06:39:26.109Z,0.80
2022-12-07T06:41:55.049Z,0.87
2022-12-07T06:44:23.808Z,1.13
2022-12-07T06:46:52.642Z,1.00
2022-12-07T06:49:20.615Z,1.50
2022-12-07T06:51:49.888Z,0.90
2022-12-07T06:54:18.264Z,1.00
2022-12-07T06:56:46.449Z,1.00
2022-12-07T06:59:14.757Z,1.17
2022-12-07T07:01:42.735Z,1.00
2022-12-07T07:04:10.702Z,1.27
2022-12-07T07:06:38.612Z,2.33
2022-12-07T07:09:08.187Z,1.77
2022-12-07T07:11:36.133Z,1.30
2022-12-07T07:14:04.207Z,3.20
2022-12-07T07:16:32.456Z,2.63
2022-12-07T07:19:00.456Z,3.03
2022-12-07T07:21:28.458Z,9.53
2022-12-07T07:23:57.312Z,2.13
2022-12-07T07:26:29.428Z,5.13
2022-12-07T07:28:57.304Z,2.70
2022-12-07T07:31:25.228Z,5.83
2022-12-07T07:33:53.602Z,3.30
2022-12-07T07:36:21.559Z,2.50
2022-12-07T07:38:49.480Z,2.00
2022-12-07T07:41:17.376Z,1.80
2022-12-07T07:43:46.664Z,2.00
2022-12-07T07:46:14.586Z,2.23
2022-12-07T07:48:42.609Z,1.57
2022-12-07T07:51:10.659Z,2.00
2022-12-07T07:53:38.596Z,2.87
2022-12-07T07:56:06.519Z,2.20
2022-12-07T07:58:34.434Z,1.97
2022-12-07T08:01:07.457Z,1.63
2022-12-07T08:03:35.587Z,2.03
2022-12-07T08:06:04.268Z,1.53
2022-12-07T08:08:32.181Z,1.87
2022-12-07T08:11:01.723Z,1.97
2022-12-07T08:13:31.496Z,1.87
2022-12-07T08:16:00.295Z,2.50
2022-12-07T08:18:29.780Z,2.17
2022-12-07T08:21:01.856Z,3.30
2022-12-07T08:23:37.586Z,1.87
2022-12-07T08:26:09.472Z,1.87
2022-12-07T08:28:37.537Z,1.80
2022-12-07T08:31:06.873Z,1.77
2022-12-07T08:33:36.471Z,2.77
2022-12-07T08:36:05.505Z,2.13
2022-12-07T08:38:34.383Z,1.50
2022-12-07T08:41:02.301Z,1.93
2022-12-07T08:43:30.272Z,3.83
2022-12-07T08:46:06.519Z,3.30
2022-12-07T08:48:36.841Z,2.57
2022-12-07T08:51:05.187Z,2.90
2022-12-07T08:53:33.594Z,2.43
2022-12-07T08:56:01.512Z,2.73
2022-12-07T08:58:29.497Z,2.73
2022-12-07T09:00:57.628Z,2.30
2022-12-07T09:03:25.507Z,2.20
2022-12-07T09:05:55.357Z,1.90
2022-12-07T09:08:24.202Z,1.53
2022-12-07T09:10:52.416Z,2.80
2022-12-07T09:13:20.307Z,1.27
2022-12-07T09:15:48.446Z,1.10
2022-12-07T09:18:16.522Z,1.47
2022-12-07T09:20:44.419Z,1.30
2022-12-07T09:23:14.008Z,1.80
2022-12-07T09:25:41.943Z,1.87
2022-12-07T09:28:09.844Z,1.30
2022-12-07T09:30:59.585Z,0.80
2022-12-07T09:33:26.059Z,1.13
2022-12-07T09:35:54.234Z,1.60
2022-12-07T09:38:25.465Z,1.33
2022-12-07T09:40:53.373Z,1.47
2022-12-07T09:43:23.326Z,2.20
2022-12-07T09:45:54.361Z,1.30
2022-12-07T09:48:23.964Z,1.20
2022-12-07T09:50:52.512Z,1.23
2022-12-07T09:53:25.357Z,0.80
2022-12-07T09:55:54.630Z,1.20
2022-12-07T09:58:25.584Z,1.70
2022-12-07T10:00:56.374Z,1.73
2022-12-07T10:03:24.904Z,1.30
2022-12-07T10:05:53.768Z,2.30
2022-12-07T10:08:22.016Z,1.53
2022-12-07T10:10:53.909Z,1.03
2022-12-07T10:13:22.921Z,1.20
2022-12-07T10:15:53.726Z,2.77
2022-12-07T10:18:27.861Z,2.40
2022-12-07T10:21:05.435Z,1.63
2022-12-07T10:23:33.394Z,1.97
2022-12-07T10:26:21.650Z,1.03
2022-12-07T10:28:49.750Z,1.40
2022-12-07T10:31:19.111Z,0.90
2022-12-07T10:33:52.628Z,1.67
2022-12-07T10:36:23.496Z,0.93
2022-12-07T10:38:53.176Z,1.60
2022-12-07T10:41:22.440Z,1.50
2022-12-07T10:43:52.883Z,1.43
2022-12-07T10:46:42.770Z,0.97
2022-12-07T10:49:30.112Z,0.90
2022-12-07T10:52:02.333Z,1.10
2022-12-07T10:54:39.309Z,0.73
2022-12-07T10:57:22.545Z,1.30
2022-12-07T11:00:11.523Z,1.10
2022-12-07T11:02:56.188Z,0.70
2022-12-07T11:05:29.280Z,1.90
2022-12-07T11:08:03.743Z,2.63
2022-12-07T11:10:40.849Z,2.47
2022-12-07T11:13:32.077Z,1.07
2022-12-07T11:16:19.155Z,1.90
2022-12-07T11:18:54.601Z,2.33
2022-12-07T11:21:26.918Z,1.80
2022-12-07T11:23:59.356Z,1.97
2022-12-07T11:26:39.131Z,2.73
2022-12-07T11:29:22.056Z,6.20
2022-12-07T11:32:00.833Z,4.40
2022-12-07T11:34:38.619Z,5.67
2022-12-07T11:37:14.395Z,1.50
2022-12-07T11:39:46.752Z,3.23
2022-12-07T11:42:19.123Z,2.07
2022-12-07T11:44:54.340Z,1.73
2022-12-07T11:47:30.468Z,2.03
2022-12-07T11:50:03.914Z,2.00
2022-12-07T11:52:37.551Z,2.60
2022-12-07T11:55:15.604Z,1.50
2022-12-07T11:57:46.936Z,1.80
2022-12-07T12:00:18.425Z,1.60
2022-12-07T12:02:50.419Z,2.20
2022-12-07T12:05:19.902Z,1.73
2022-12-07T12:10:50.264Z,1.70
2022-12-07T12:17:07.553Z,1.10
2022-12-07T12:19:37.591Z,1.30
2022-12-07T12:22:14.346Z,1.10
2022-12-07T12:24:42.994Z,1.10
2022-12-07T12:27:17.339Z,1.10
2022-12-07T12:29:45.892Z,1.10
2022-12-07T12:32:20.321Z,1.10
2022-12-07T12:35:05.322Z,1.10
2022-12-07T12:37:46.845Z,1.00
2022-12-07T12:40:48.724Z,1.00
2022-12-07T12:43:53.714Z,1.27
2022-12-07T12:46:42.944Z,3.47
2022-12-07T12:49:46.364Z,10.30
2022-12-07T12:52:51.957Z,4.47
2022-12-07T12:55:41.484Z,4.43
2022-12-07T12:58:43.137Z,2.73
2022-12-07T13:01:48.219Z,3.87
2022-12-07T13:04:39.173Z,3.23
2022-12-07T13:07:13.005Z,1.90
2022-12-07T13:09:45.336Z,2.03
2022-12-07T13:12:17.301Z,1.90
2022-12-07T13:14:57.414Z,2.23
2022-12-07T13:17:57.997Z,2.43
2022-12-07T13:20:48.436Z,8.87
2022-12-07T13:23:22.404Z,9.00
2022-12-07T13:26:01.749Z,6.57
2022-12-07T13:28:35.960Z,5.47
2022-12-07T13:31:33.919Z,5.27
2022-12-07T13:34:03.001Z,2.77
2022-12-07T13:36:37.076Z,5.17
2022-12-07T13:39:21.055Z,4.83
2022-12-07T13:41:53.068Z,5.87
2022-12-07T13:44:21.656Z,2.40
2022-12-07T13:46:57.187Z,5.60
2022-12-07T13:49:26.586Z,1.17
2022-12-07T13:51:55.268Z,2.47
2022-12-07T13:54:24.626Z,7.40
2022-12-07T13:56:53.636Z,5.53
2022-12-07T13:59:24.136Z,5.50
2022-12-07T14:01:53.600Z,7.77
2022-12-07T14:04:33.844Z,5.30
2022-12-07T14:07:03.445Z,3.73
2022-12-07T14:09:32.779Z,11.30
2022-12-07T14:12:01.440Z,9.83
2022-12-07T14:14:36.675Z,9.80
2022-12-07T14:17:14.569Z,3.77
2022-12-07T14:19:51.541Z,8.07
2022-12-07T14:22:31.225Z,9.10
2022-12-07T14:25:19.750Z,5.07
2022-12-07T14:27:59.153Z,1.27
2022-12-07T14:30:29.038Z,1.10
2022-12-07T14:33:00.354Z,1.57
2022-12-07T14:35:28.675Z,4.17
2022-12-07T14:37:56.745Z,4.70
2022-12-07T14:40:27.909Z,5.37
2022-12-07T14:42:59.645Z,2.23
2022-12-07T14:45:27.625Z,1.80
2022-12-07T14:53:36.959Z,3.33
2022-12-07T14:56:07.524Z,3.07
2022-12-07T14:58:35.507Z,2.27
2022-12-07T15:01:03.463Z,2.80
2022-12-07T15:03:31.822Z,5.63
2022-12-07T15:06:00.515Z,4.70
2022-12-07T15:08:28.656Z,17.67
2022-12-07T15:10:56.669Z,8.30
2022-12-07T15:13:43.584Z,5.67
2022-12-07T15:16:21.384Z,2.33
2022-12-07T15:19:19.423Z,2.37
2022-12-07T15:21:37.253Z,1.77
2022-12-07T15:24:05.321Z,2.57
2022-12-07T15:26:33.553Z,5.30
2022-12-07T15:29:02.889Z,2.97
2022-12-07T15:34:18.759Z,2.33
2022-12-07T15:36:46.680Z,1.30
2022-12-07T15:39:15.364Z,1.30
2022-12-07T15:41:43.569Z,1.50
2022-12-07T15:44:31.614Z,1.10
2022-12-07T15:46:59.650Z,1.33
2022-12-07T15:49:28.465Z,3.87
2022-12-07T15:51:56.518Z,1.83
2022-12-07T15:54:26.170Z,1.10
2022-12-07T15:56:54.537Z,1.27
2022-12-07T15:59:24.036Z,1.60
2022-12-07T16:01:52.142Z,2.13
2022-12-07T16:04:20.160Z,1.23
2022-12-07T16:06:50.985Z,1.07
2022-12-07T16:09:19.057Z,3.33
2022-12-07T16:11:47.164Z,2.87
2022-12-07T16:14:15.162Z,2.27
2022-12-07T16:16:44.501Z,1.60
2022-12-07T16:19:13.037Z,1.80
2022-12-07T16:21:41.481Z,2.03
2022-12-07T16:24:11.171Z,1.33
2022-12-07T16:26:39.107Z,1.80
2022-12-07T16:29:07.242Z,1.67
2022-12-07T16:31:35.339Z,2.07
2022-12-07T16:34:04.676Z,2.83
2022-12-07T16:37:02.666Z,1.90
2022-12-07T16:39:20.578Z,1.77
2022-12-07T16:41:48.497Z,2.00
2022-12-07T16:44:16.392Z,2.03
2022-12-07T16:46:44.740Z,2.23
2022-12-07T16:49:15.727Z,1.87
2022-12-07T16:51:44.243Z,1.87
2022-12-07T16:54:13.290Z,1.80
2022-12-07T16:56:41.518Z,2.50
2022-12-07T16:59:09.603Z,2.70
2022-12-07T17:01:37.721Z,1.83
2022-12-07T17:04:06.325Z,2.10
2022-12-07T17:06:35.636Z,2.60
2022-12-07T17:09:05.380Z,1.90
2022-12-07T17:11:33.350Z,2.57
2022-12-07T17:14:26.917Z,1.33
2022-12-07T17:16:54.870Z,2.13
2022-12-07T17:19:22.924Z,2.10
2022-12-07T17:21:52.230Z,2.07
2022-12-07T17:24:20.115Z,1.97
2022-12-07T17:26:48.214Z,1.20
2022-12-07T17:29:17.492Z,3.17
2022-12-07T17:31:51.015Z,3.53
2022-12-07T17:34:19.484Z,3.00
2022-12-07T17:36:47.868Z,1.97
2022-12-07T17:39:19.565Z,2.50
2022-12-07T17:42:05.318Z,1.87
2022-12-07T17:44:33.597Z,2.40
2022-12-07T17:47:02.775Z,6.63
2022-12-07T17:49:31.041Z,4.33
2022-12-07T17:52:16.784Z,2.83
2022-12-07T17:54:46.135Z,14.93
2022-12-07T17:57:14.151Z,3.10
2022-12-07T17:59:42.164Z,2.53
2022-12-07T18:02:11.400Z,2.00
2022-12-07T18:04:40.203Z,2.30
2022-12-07T18:07:08.286Z,2.37
2022-12-07T18:09:36.456Z,2.37
2022-12-07T18:12:06.083Z,1.60
2022-12-07T18:14:34.004Z,2.20
2022-12-07T18:17:01.997Z,1.47
2022-12-07T18:19:29.967Z,1.77
2022-12-07T18:21:57.881Z,1.90
2022-12-07T18:24:25.764Z,2.50
2022-12-07T18:26:53.661Z,1.73
2022-12-07T18:29:23.004Z,1.80
2022-12-07T18:31:51.100Z,2.10
2022-12-07T18:34:20.033Z,2.07
2022-12-07T18:36:50.472Z,1.80
2022-12-07T18:39:19.887Z,2.23
2022-12-07T18:41:47.941Z,2.40
2022-12-07T18:44:16.994Z,2.10
2022-12-07T18:46:46.536Z,2.57
2022-12-07T18:49:15.258Z,2.00
2022-12-07T18:51:45.155Z,2.40
2022-12-07T18:54:13.336Z,6.07
2022-12-07T18:56:41.282Z,4.23
2022-12-07T18:59:26.936Z,2.60
2022-12-07T19:01:56.649Z,2.90
2022-12-07T19:04:24.770Z,2.50
2022-12-07T19:06:52.811Z,2.40
2022-12-07T19:09:21.500Z,2.80
2022-12-07T19:11:52.797Z,3.90
2022-12-07T19:14:24.415Z,3.60
2022-12-07T19:16:53.947Z,2.63
2022-12-07T19:19:24.847Z,3.20
2022-12-07T19:21:52.761Z,2.73
2022-12-07T19:24:23.448Z,2.13
2022-12-07T19:26:51.687Z,2.90
2022-12-07T19:29:19.935Z,3.07
2022-12-07T19:31:48.080Z,2.03
2022-12-07T19:34:17.588Z,2.20
2022-12-07T19:36:47.680Z,2.43
2022-12-07T19:39:17.887Z,2.47
2022-12-07T19:41:46.277Z,2.27
2022-12-07T19:44:15.274Z,1.90
2022-12-07T19:46:45.723Z,2.17
2022-12-07T19:49:16.096Z,2.50
2022-12-07T19:51:46.744Z,1.77
2022-12-07T19:54:15.956Z,2.30
2022-12-07T19:56:44.444Z,2.27
2022-12-07T19:59:13.204Z,2.00
2022-12-07T20:01:42.243Z,1.90
2022-12-07T20:04:13.127Z,1.70
2022-12-07T20:06:41.586Z,1.83
2022-12-07T20:09:11.119Z,1.27
2022-12-07T20:11:56.433Z,1.73
2022-12-07T20:14:25.017Z,1.50
2022-12-07T20:16:53.472Z,2.00
2022-12-07T20:19:21.582Z,2.13
2022-12-07T20:21:50.459Z,2.10
2022-12-07T20:24:21.484Z,1.53
2022-12-07T20:26:50.396Z,1.40
2022-12-07T20:29:20.079Z,1.67
2022-12-07T20:31:49.230Z,2.00
2022-12-07T20:34:17.347Z,1.87
2022-12-07T20:36:45.373Z,1.50
2022-12-07T20:39:13.463Z,1.60
2022-12-07T20:42:00.297Z,1.63
2022-12-07T20:44:28.543Z,1.83
2022-12-07T20:46:56.463Z,2.10
2022-12-07T20:49:24.504Z,2.20
2022-12-07T20:51:52.450Z,2.20
2022-12-07T20:54:20.661Z,2.20
2022-12-07T20:56:50.045Z,2.00
2022-12-07T20:59:18.161Z,1.90
2022-12-07T21:01:46.625Z,2.10
2022-12-07T21:04:15.375Z,2.87
2022-12-07T21:06:43.911Z,2.40
2022-12-07T21:09:12.356Z,2.10
2022-12-07T21:11:40.534Z,2.27
2022-12-07T21:14:10.150Z,2.83
2022-12-07T21:16:38.152Z,2.83
2022-12-07T21:19:06.612Z,3.30
2022-12-07T21:21:35.010Z,3.17
2022-12-07T21:24:04.105Z,2.97
2022-12-07T21:26:34.335Z,3.10
2022-12-07T21:29:03.074Z,2.30
2022-12-07T21:31:32.808Z,3.57
2022-12-07T21:34:02.573Z,2.60
2022-12-07T21:36:30.580Z,4.07
2022-12-07T21:38:58.859Z,3.20
2022-12-07T21:41:28.705Z,4.10
2022-12-07T21:43:56.828Z,4.87
2022-12-07T21:46:32.863Z,6.13
2022-12-07T21:49:04.996Z,5.30
2022-12-07T21:51:33.087Z,5.03
2022-12-07T21:54:02.140Z,6.27
2022-12-07T21:56:31.207Z,4.93
2022-12-07T21:59:01.326Z,5.27
2022-12-07T22:01:35.389Z,5.10
2022-12-07T22:04:06.333Z,7.13
2022-12-07T22:06:34.987Z,7.07
2022-12-07T22:09:03.833Z,6.53
2022-12-07T22:11:31.720Z,7.73
2022-12-07T22:14:17.232Z,6.23
2022-12-07T22:16:45.167Z,6.73
2022-12-07T22:19:14.475Z,6.83
2022-12-07T22:21:42.449Z,6.57
2022-12-07T22:24:12.985Z,7.13
2022-12-07T22:26:41.121Z,6.60
2022-12-07T22:29:09.050Z,6.63
2022-12-07T22:31:38.192Z,7.50
2022-12-07T22:34:06.257Z,6.83
2022-12-07T22:36:35.511Z,6.70
2022-12-07T22:39:03.455Z,6.40
2022-12-07T22:41:32.900Z,7.40
2022-12-07T22:44:01.378Z,7.27
2022-12-07T22:46:29.700Z,7.63
2022-12-07T22:48:57.673Z,7.73
2022-12-07T22:51:27.068Z,5.93
2022-12-07T22:53:56.887Z,6.90
2022-12-07T22:56:24.822Z,6.67
2022-12-07T22:58:52.824Z,7.17
2022-12-07T23:01:21.405Z,5.60
2022-12-07T23:03:49.595Z,6.60
2022-12-07T23:06:19.324Z,6.67
2022-12-07T23:08:47.639Z,5.20
2022-12-07T23:11:37.298Z,5.77
2022-12-07T23:14:08.056Z,5.57
2022-12-07T23:16:36.068Z,6.30
2022-12-07T23:19:04.274Z,5.90
2022-12-07T23:21:32.457Z,5.13
2022-12-07T23:24:00.352Z,5.10
2022-12-07T23:26:29.726Z,5.23
2022-12-07T23:28:58.356Z,5.77
2022-12-07T23:31:26.734Z,5.37
2022-12-07T23:33:54.729Z,5.80
2022-12-07T23:36:24.894Z,5.33
2022-12-07T23:38:53.603Z,5.07
2022-12-07T23:41:23.183Z,4.27
2022-12-07T23:43:52.777Z,4.70
2022-12-07T23:46:22.206Z,4.43
2022-12-07T23:48:51.194Z,4.43
2022-12-07T23:51:19.727Z,4.90
2022-12-07T23:53:49.577Z,4.40
2022-12-07T23:56:19.482Z,5.00
2022-12-07T23:58:47.571Z,5.03
